• location
  • image
Airport

AP V2 EN

 

 

Click here to view short presentation ->

Today

Wednesday, 20 August 2014

Weather Forecast

Siauliai 12 °C
   

Aviation Weather Forecast

[source: ADDS]
METAR
EYSA 201950Z 21008KT CAVOK 12/09 Q1011 =
TAF
TAF EYSA 202000Z 2021/2106 22010KT 7000 BKN040 TEMPO 2021/2024 SHRA BKN030CB TEMPO 2102/2105 SCT005 =
SR / SS: 03:12 / 17:50 UTC (EYSA 2014-08-20)

Who's Online

We have 7 guests online

tic logo en